KDKX

Knoxville Downtown Island Airport

Knoxville, Tennessee, USA
METAR KDKX 202015Z AUTO 25005KT 10SM SCT028 SCT033 30/24 A2997 RMK A01
Observed Flight Rules
Aug-20 @ 20:15 UTC (14 minutes ago) Visual Flight Rules
Wind Visibility Clouds
250° at 5 knots 10 miles
  • Scattered at 2,800' AGL
  • Scattered at 3,300' AGL
Temperatures Readings
Current 30°C / 86°F
Dewpoint 24°C / 75°F
Humidity 70%
Altimeter 29.97" Hg
Pressure 1015 hPa
Elevation 254
METAR KDKX 202015Z AUTO 25005KT 10SM SCT028 SCT033 30/24 A2997 RMK A01
Observed Flight Rules
Aug-20 @ 20:15 UTC
(14 minutes ago)
VFR
Wind Visibility
250° at 5 knots 10 miles
Clouds
  • Scattered at 2,800' AGL
  • Scattered at 3,300' AGL
Temperature Dewpoint
30°C / 86°F 24°C / 75°F
Humidity Altimeter Pressure
70% 29.97" Hg 1015 hPa